SAS97K KLAX-EKCH
Flight info
| Callsign | SAS97K |
|---|---|
| Flight time | N/A |
| Altitude | 35000 |
| Route | OSHNN1 BEALE J146 NOOTN DCT KL39O DCT COCAN/N0492F370 J64 RSK DCT ALS DCT HYS DCT IRK DCT JOT DCT ECK DCT YXI DCT YBC/N0488F390 DCT HOIST/M084F390 DCT 5730N05000W 60N040W 61N030W 62N020W/M085F410 62N010W DCT VALDI/N0494F410 DCT RIVEX DCT TNO |
| Aircraft | A359/H-SDE2E3GHIJ3J4J5LM1ORWXY/LB1D1 |
Departure
| Time | 2026-05-06 12:05 |
|---|---|
| Airport | Los Angeles International Airport (KLAX) |
Arrival
| Time | N/A |
|---|---|
| Airport | Copenhagen Kastrup Airport (EKCH) |
| Time | Latitude | Longitude | Altitude | Speed | Heading |
|---|---|---|---|---|---|
| 2026-05-06 11:28 | 33.93943 | -118.41058 | 102 ft | 0 kts | 82° |
| 2026-05-06 11:50 | 33.93943 | -118.41062 | 102 ft | 2 kts | 82° |
| 2026-05-06 11:50 | 33.93940 | -118.41085 | 101 ft | 3 kts | 83° |
| 2026-05-06 11:51 | 33.93938 | -118.41109 | 100 ft | 3 kts | 84° |
| 2026-05-06 11:51 | 33.93936 | -118.41133 | 100 ft | 2 kts | 83° |
| 2026-05-06 11:51 | 33.93934 | -118.41151 | 101 ft | 3 kts | 98° |
| 2026-05-06 11:51 | 33.93940 | -118.41169 | 101 ft | 3 kts | 150° |
| 2026-05-06 11:52 | 33.93958 | -118.41175 | 99 ft | 3 kts | 175° |
| 2026-05-06 11:52 | 33.93971 | -118.41177 | 101 ft | 1 kts | 173° |
| 2026-05-06 11:52 | 33.93972 | -118.41179 | 103 ft | 0 kts | 173° |
| 2026-05-06 11:52 | 33.93973 | -118.41182 | 103 ft | 0 kts | 173° |
| 2026-05-06 11:55 | 33.93972 | -118.41182 | 101 ft | 1 kts | 173° |
| 2026-05-06 11:56 | 33.93946 | -118.41176 | 103 ft | 7 kts | 169° |
| 2026-05-06 11:56 | 33.93883 | -118.41163 | 105 ft | 10 kts | 171° |
| 2026-05-06 11:56 | 33.93816 | -118.41150 | 105 ft | 9 kts | 171° |
| 2026-05-06 11:56 | 33.93778 | -118.41132 | 107 ft | 2 kts | 124° |
| 2026-05-06 11:57 | 33.93772 | -118.41085 | 106 ft | 10 kts | 95° |
| 2026-05-06 11:57 | 33.93781 | -118.40972 | 107 ft | 18 kts | 83° |
| 2026-05-06 11:57 | 33.93798 | -118.40799 | 106 ft | 24 kts | 83° |
| 2026-05-06 11:57 | 33.93821 | -118.40580 | 106 ft | 27 kts | 83° |
| 2026-05-06 11:58 | 33.93844 | -118.40353 | 110 ft | 29 kts | 83° |
| 2026-05-06 11:58 | 33.93869 | -118.40102 | 108 ft | 31 kts | 83° |
| 2026-05-06 11:58 | 33.93896 | -118.39839 | 107 ft | 32 kts | 83° |
| 2026-05-06 11:58 | 33.93924 | -118.39569 | 108 ft | 33 kts | 83° |
| 2026-05-06 11:59 | 33.93952 | -118.39293 | 106 ft | 33 kts | 83° |
| 2026-05-06 11:59 | 33.93980 | -118.39020 | 108 ft | 32 kts | 83° |
| 2026-05-06 11:59 | 33.94007 | -118.38755 | 108 ft | 31 kts | 83° |
| 2026-05-06 11:59 | 33.94028 | -118.38542 | 108 ft | 24 kts | 83° |
| 2026-05-06 12:00 | 33.94048 | -118.38346 | 108 ft | 23 kts | 83° |
| 2026-05-06 12:00 | 33.94068 | -118.38159 | 109 ft | 19 kts | 83° |
| 2026-05-06 12:00 | 33.94079 | -118.38038 | 109 ft | 10 kts | 88° |
| 2026-05-06 12:00 | 33.94066 | -118.38010 | 108 ft | 2 kts | 129° |
| 2026-05-06 12:01 | 33.94059 | -118.38004 | 110 ft | 2 kts | 145° |
| 2026-05-06 12:01 | 33.94028 | -118.37991 | 113 ft | 6 kts | 162° |
| 2026-05-06 12:01 | 33.93990 | -118.37999 | 112 ft | 4 kts | 232° |
| 2026-05-06 12:01 | 33.93987 | -118.38022 | 112 ft | 0 kts | 261° |
| 2026-05-06 12:03 | 33.93985 | -118.38034 | 113 ft | 10 kts | 261° |
| 2026-05-06 12:04 | 33.93950 | -118.38350 | 114 ft | 69 kts | 263° |
| 2026-05-06 12:04 | 33.93865 | -118.39159 | 109 ft | 124 kts | 263° |
| 2026-05-06 12:04 | 33.93741 | -118.40381 | 139 ft | 167 kts | 263° |
| 2026-05-06 12:04 | 33.93603 | -118.41757 | 680 ft | 165 kts | 263° |
| 2026-05-06 12:05 | 33.93471 | -118.43138 | 1215 ft | 169 kts | 263° |
| 2026-05-06 12:05 | 33.93344 | -118.44567 | 1556 ft | 174 kts | 264° |
| 2026-05-06 12:05 | 33.93177 | -118.46018 | 1913 ft | 177 kts | 255° |
| 2026-05-06 12:05 | 33.92637 | -118.47380 | 2169 ft | 187 kts | 231° |
| 2026-05-06 12:06 | 33.91692 | -118.48511 | 2454 ft | 197 kts | 223° |
| 2026-05-06 12:06 | 33.90707 | -118.49723 | 2770 ft | 208 kts | 229° |
| 2026-05-06 12:06 | 33.89717 | -118.51083 | 3022 ft | 223 kts | 231° |
| 2026-05-06 12:06 | 33.88714 | -118.52572 | 3352 ft | 235 kts | 233° |
| 2026-05-06 12:07 | 33.87695 | -118.54170 | 3706 ft | 246 kts | 231° |
| 2026-05-06 12:07 | 33.86381 | -118.55549 | 4061 ft | 259 kts | 209° |
| 2026-05-06 12:07 | 33.84628 | -118.56173 | 4496 ft | 268 kts | 187° |
| 2026-05-06 12:07 | 33.82767 | -118.56008 | 5049 ft | 272 kts | 168° |
| 2026-05-06 12:08 | 33.80915 | -118.55469 | 5543 ft | 276 kts | 164° |
| 2026-05-06 12:08 | 33.79053 | -118.54831 | 6059 ft | 280 kts | 164° |
| 2026-05-06 12:08 | 33.77167 | -118.54222 | 6594 ft | 282 kts | 165° |
| 2026-05-06 12:08 | 33.75256 | -118.53648 | 7088 ft | 285 kts | 165° |
| 2026-05-06 12:09 | 33.73347 | -118.53101 | 7599 ft | 286 kts | 165° |
| 2026-05-06 12:09 | 33.71427 | -118.52454 | 8115 ft | 287 kts | 155° |
| 2026-05-06 12:09 | 33.69800 | -118.51137 | 8622 ft | 282 kts | 129° |
| 2026-05-06 12:09 | 33.68805 | -118.49148 | 9174 ft | 277 kts | 109° |
| 2026-05-06 12:10 | 33.68143 | -118.46980 | 9754 ft | 277 kts | 106° |
| 2026-05-06 12:10 | 33.67519 | -118.44786 | 10240 ft | 281 kts | 105° |
| 2026-05-06 12:10 | 33.66871 | -118.42522 | 10477 ft | 293 kts | 106° |
| 2026-05-06 12:10 | 33.66185 | -118.40161 | 10669 ft | 306 kts | 106° |
| 2026-05-06 12:11 | 33.65462 | -118.37698 | 10886 ft | 319 kts | 106° |
| 2026-05-06 12:11 | 33.64748 | -118.35129 | 11085 ft | 329 kts | 102° |
| 2026-05-06 12:11 | 33.64441 | -118.32385 | 11280 ft | 337 kts | 89° |
| 2026-05-06 12:11 | 33.64423 | -118.29535 | 11491 ft | 347 kts | 87° |
| 2026-05-06 12:12 | 33.64439 | -118.26603 | 11674 ft | 357 kts | 87° |
| 2026-05-06 12:12 | 33.64486 | -118.23584 | 11873 ft | 365 kts | 84° |
| 2026-05-06 12:12 | 33.64839 | -118.20561 | 12188 ft | 367 kts | 74° |
| 2026-05-06 12:12 | 33.65668 | -118.17660 | 12566 ft | 368 kts | 63° |
| 2026-05-06 12:13 | 33.66957 | -118.15016 | 12966 ft | 368 kts | 52° |
| 2026-05-06 12:13 | 33.68575 | -118.12639 | 13363 ft | 369 kts | 47° |
| 2026-05-06 12:13 | 33.70319 | -118.10354 | 13787 ft | 371 kts | 45° |
| 2026-05-06 12:13 | 33.72115 | -118.08121 | 14152 ft | 373 kts | 44° |
| 2026-05-06 12:14 | 33.73933 | -118.05894 | 14513 ft | 375 kts | 44° |
| 2026-05-06 12:14 | 33.75760 | -118.03651 | 14841 ft | 377 kts | 44° |
| 2026-05-06 12:14 | 33.77588 | -118.01385 | 15219 ft | 378 kts | 45° |
| 2026-05-06 12:14 | 33.79412 | -117.99101 | 15597 ft | 380 kts | 45° |
| 2026-05-06 12:15 | 33.81241 | -117.96796 | 15986 ft | 381 kts | 45° |
| 2026-05-06 12:15 | 33.83071 | -117.94479 | 16365 ft | 383 kts | 45° |
| 2026-05-06 12:15 | 33.84906 | -117.92150 | 16725 ft | 385 kts | 45° |
| 2026-05-06 12:15 | 33.86754 | -117.89803 | 17085 ft | 387 kts | 45° |
| 2026-05-06 12:16 | 33.88607 | -117.87448 | 17445 ft | 388 kts | 45° |
| 2026-05-06 12:16 | 33.90465 | -117.85085 | 17767 ft | 390 kts | 45° |
| 2026-05-06 12:16 | 33.92341 | -117.82699 | 18065 ft | 394 kts | 45° |
| 2026-05-06 12:16 | 33.94228 | -117.80300 | 18410 ft | 396 kts | 45° |
| 2026-05-06 12:17 | 33.96121 | -117.77890 | 18715 ft | 397 kts | 45° |
| 2026-05-06 12:17 | 33.98021 | -117.75469 | 19032 ft | 398 kts | 45° |
| 2026-05-06 12:17 | 33.99923 | -117.73044 | 19354 ft | 399 kts | 45° |
| 2026-05-06 12:17 | 34.01808 | -117.70639 | 19656 ft | 400 kts | 45° |
| 2026-05-06 12:18 | 34.03721 | -117.68196 | 19941 ft | 401 kts | 45° |
| 2026-05-06 12:18 | 34.05665 | -117.65712 | 20251 ft | 402 kts | 45° |
| 2026-05-06 12:18 | 34.07586 | -117.63255 | 20533 ft | 404 kts | 45° |
| 2026-05-06 12:18 | 34.09515 | -117.60787 | 20819 ft | 405 kts | 45° |
| 2026-05-06 12:19 | 34.11448 | -117.58312 | 21093 ft | 406 kts | 45° |
| 2026-05-06 12:19 | 34.13359 | -117.55864 | 21378 ft | 407 kts | 45° |
| 2026-05-06 12:19 | 34.15305 | -117.53369 | 21666 ft | 408 kts | 45° |
| 2026-05-06 12:19 | 34.17252 | -117.50871 | 21943 ft | 410 kts | 45° |
| 2026-05-06 12:20 | 34.19205 | -117.48364 | 22171 ft | 411 kts | 45° |
| 2026-05-06 12:20 | 34.21167 | -117.45843 | 22479 ft | 412 kts | 45° |
| 2026-05-06 12:20 | 34.23134 | -117.43312 | 22773 ft | 413 kts | 45° |
| 2026-05-06 12:20 | 34.25104 | -117.40776 | 23047 ft | 414 kts | 45° |
| 2026-05-06 12:21 | 34.27078 | -117.38232 | 23288 ft | 416 kts | 45° |
| 2026-05-06 12:21 | 34.29058 | -117.35681 | 23583 ft | 417 kts | 45° |
| 2026-05-06 12:21 | 34.31047 | -117.33116 | 23829 ft | 418 kts | 45° |
| 2026-05-06 12:21 | 34.33041 | -117.30543 | 24051 ft | 420 kts | 45° |
| 2026-05-06 12:22 | 34.35038 | -117.27965 | 24276 ft | 421 kts | 45° |
| 2026-05-06 12:22 | 34.37042 | -117.25375 | 24501 ft | 422 kts | 45° |
| 2026-05-06 12:22 | 34.39051 | -117.22777 | 24726 ft | 423 kts | 45° |
| 2026-05-06 12:22 | 34.41063 | -117.20172 | 24949 ft | 424 kts | 45° |
| 2026-05-06 12:23 | 34.43079 | -117.17560 | 25166 ft | 425 kts | 45° |
| 2026-05-06 12:23 | 34.45104 | -117.14935 | 25412 ft | 426 kts | 45° |
| 2026-05-06 12:23 | 34.47131 | -117.12305 | 25643 ft | 427 kts | 45° |
| 2026-05-06 12:23 | 34.49136 | -117.09701 | 25862 ft | 429 kts | 45° |
| 2026-05-06 12:24 | 34.51171 | -117.07057 | 26084 ft | 430 kts | 45° |
| 2026-05-06 12:24 | 34.53210 | -117.04405 | 26315 ft | 431 kts | 46° |
| 2026-05-06 12:24 | 34.55259 | -117.01737 | 26548 ft | 432 kts | 46° |
| 2026-05-06 12:24 | 34.57311 | -116.99065 | 26780 ft | 433 kts | 46° |
| 2026-05-06 12:25 | 34.59369 | -116.96383 | 27017 ft | 435 kts | 46° |
| 2026-05-06 12:25 | 34.61433 | -116.93690 | 27257 ft | 436 kts | 46° |
| 2026-05-06 12:25 | 34.63499 | -116.90993 | 27496 ft | 437 kts | 46° |
| 2026-05-06 12:25 | 34.65571 | -116.88286 | 27730 ft | 438 kts | 46° |
| 2026-05-06 12:26 | 34.67649 | -116.85569 | 27981 ft | 440 kts | 46° |
| 2026-05-06 12:26 | 34.69733 | -116.82841 | 28217 ft | 441 kts | 46° |
| 2026-05-06 12:26 | 34.71819 | -116.80108 | 28438 ft | 442 kts | 46° |
| 2026-05-06 12:26 | 34.73912 | -116.77364 | 28671 ft | 443 kts | 46° |
| 2026-05-06 12:27 | 34.76011 | -116.74611 | 28865 ft | 444 kts | 46° |
| 2026-05-06 12:27 | 34.78113 | -116.71852 | 29081 ft | 445 kts | 46° |
| 2026-05-06 12:27 | 34.80221 | -116.69083 | 29297 ft | 447 kts | 46° |
| 2026-05-06 12:27 | 34.82334 | -116.66305 | 29507 ft | 448 kts | 46° |
| 2026-05-06 12:28 | 34.84453 | -116.63515 | 29706 ft | 449 kts | 46° |
| 2026-05-06 12:28 | 34.86576 | -116.60720 | 29927 ft | 449 kts | 46° |
| 2026-05-06 12:28 | 34.88691 | -116.57931 | 30222 ft | 448 kts | 46° |
| 2026-05-06 12:28 | 34.90772 | -116.55186 | 30502 ft | 446 kts | 46° |
| 2026-05-06 12:29 | 34.92873 | -116.52411 | 30844 ft | 443 kts | 46° |
| 2026-05-06 12:29 | 34.94957 | -116.49657 | 31160 ft | 441 kts | 46° |
| 2026-05-06 12:29 | 34.97059 | -116.46876 | 31457 ft | 440 kts | 46° |
| 2026-05-06 12:29 | 34.99103 | -116.44171 | 31719 ft | 439 kts | 46° |
| 2026-05-06 12:30 | 35.01169 | -116.41435 | 31984 ft | 438 kts | 46° |
| 2026-05-06 12:30 | 35.03228 | -116.38705 | 32261 ft | 436 kts | 46° |
| 2026-05-06 12:30 | 35.05282 | -116.35981 | 32526 ft | 435 kts | 46° |
| 2026-05-06 12:30 | 35.07326 | -116.33267 | 32785 ft | 434 kts | 46° |
| 2026-05-06 12:31 | 35.09367 | -116.30555 | 33068 ft | 433 kts | 46° |
| 2026-05-06 12:31 | 35.11404 | -116.27846 | 33337 ft | 432 kts | 46° |
| 2026-05-06 12:31 | 35.13433 | -116.25146 | 33597 ft | 431 kts | 46° |
| 2026-05-06 12:31 | 35.15460 | -116.22446 | 33761 ft | 431 kts | 46° |
| 2026-05-06 12:32 | 35.17486 | -116.19746 | 33994 ft | 430 kts | 46° |
| 2026-05-06 12:32 | 35.19504 | -116.17053 | 34197 ft | 430 kts | 46° |
| 2026-05-06 12:32 | 35.21530 | -116.14348 | 34308 ft | 431 kts | 46° |
| 2026-05-06 12:32 | 35.23556 | -116.11641 | 34438 ft | 432 kts | 46° |
| 2026-05-06 12:33 | 35.25583 | -116.08929 | 34643 ft | 431 kts | 46° |
| 2026-05-06 12:33 | 35.27607 | -116.06220 | 34786 ft | 432 kts | 46° |
| 2026-05-06 12:33 | 35.31673 | -116.00773 | 34983 ft | 435 kts | 46° |
| 2026-05-06 12:34 | 35.35788 | -115.95252 | 35045 ft | 441 kts | 46° |
| 2026-05-06 12:34 | 35.39891 | -115.89735 | 35049 ft | 441 kts | 46° |
| 2026-05-06 12:35 | 35.44015 | -115.84181 | 35056 ft | 441 kts | 46° |
| 2026-05-06 12:35 | 35.48140 | -115.78617 | 35059 ft | 441 kts | 46° |
| 2026-05-06 12:36 | 35.52261 | -115.73050 | 35062 ft | 441 kts | 46° |
| 2026-05-06 12:36 | 35.56381 | -115.67475 | 35060 ft | 441 kts | 46° |
| 2026-05-06 12:37 | 35.59801 | -115.62839 | 35071 ft | 441 kts | 46° |
| 2026-05-06 12:37 | 35.63920 | -115.57249 | 35052 ft | 442 kts | 46° |
| 2026-05-06 12:38 | 35.68046 | -115.51640 | 35058 ft | 442 kts | 46° |
| 2026-05-06 12:38 | 35.72167 | -115.46028 | 35062 ft | 442 kts | 46° |
| 2026-05-06 12:39 | 35.76283 | -115.40412 | 35055 ft | 442 kts | 46° |
| 2026-05-06 12:39 | 35.80403 | -115.34783 | 35049 ft | 442 kts | 46° |
| 2026-05-06 12:40 | 35.84517 | -115.29153 | 35053 ft | 442 kts | 46° |
| 2026-05-06 12:40 | 35.88605 | -115.23547 | 35038 ft | 443 kts | 46° |
| 2026-05-06 12:41 | 35.92711 | -115.17909 | 35035 ft | 440 kts | 46° |
| 2026-05-06 12:41 | 35.96795 | -115.12290 | 35035 ft | 440 kts | 46° |
| 2026-05-06 12:42 | 36.00885 | -115.06655 | 35036 ft | 440 kts | 46° |
| 2026-05-06 12:42 | 36.04966 | -115.01023 | 35010 ft | 440 kts | 46° |
| 2026-05-06 12:43 | 36.09054 | -114.95372 | 34952 ft | 441 kts | 46° |
| 2026-05-06 12:43 | 36.13146 | -114.89706 | 34954 ft | 442 kts | 46° |
| 2026-05-06 12:44 | 36.17095 | -114.83873 | 34947 ft | 444 kts | 53° |
| 2026-05-06 12:44 | 36.19953 | -114.77064 | 34940 ft | 449 kts | 64° |
| 2026-05-06 12:45 | 36.22235 | -114.69848 | 34927 ft | 451 kts | 65° |
| 2026-05-06 12:46 | 36.25510 | -114.58930 | 34906 ft | 451 kts | 65° |
| 2026-05-06 12:46 | 36.27705 | -114.51660 | 34904 ft | 451 kts | 65° |
| 2026-05-06 12:47 | 36.29905 | -114.44399 | 34904 ft | 449 kts | 65° |
| 2026-05-06 12:47 | 36.32085 | -114.37202 | 34919 ft | 449 kts | 65° |
| 2026-05-06 12:48 | 36.34281 | -114.29935 | 34903 ft | 450 kts | 65° |
| 2026-05-06 12:48 | 36.36470 | -114.22662 | 34907 ft | 450 kts | 65° |
| 2026-05-06 12:49 | 36.38656 | -114.15380 | 34909 ft | 450 kts | 65° |
| 2026-05-06 12:49 | 36.40838 | -114.08094 | 34913 ft | 450 kts | 65° |
| 2026-05-06 12:50 | 36.43019 | -114.00794 | 34914 ft | 452 kts | 65° |
| 2026-05-06 12:50 | 36.45201 | -113.93474 | 34925 ft | 452 kts | 65° |
| 2026-05-06 12:51 | 36.47380 | -113.86138 | 34930 ft | 452 kts | 65° |
| 2026-05-06 12:51 | 36.49553 | -113.78805 | 34930 ft | 452 kts | 65° |
| 2026-05-06 12:52 | 36.51724 | -113.71463 | 34938 ft | 453 kts | 65° |
| 2026-05-06 12:52 | 36.53903 | -113.64086 | 34932 ft | 455 kts | 65° |
| 2026-05-06 12:53 | 36.56065 | -113.56738 | 34948 ft | 456 kts | 65° |
| 2026-05-06 12:53 | 36.58234 | -113.49336 | 34947 ft | 456 kts | 65° |
| 2026-05-06 12:54 | 36.60401 | -113.41926 | 34968 ft | 456 kts | 66° |
| 2026-05-06 12:54 | 36.61976 | -113.34225 | 34967 ft | 466 kts | 79° |
| 2026-05-06 12:55 | 36.61891 | -113.26083 | 34965 ft | 475 kts | 89° |
| 2026-05-06 12:55 | 36.61196 | -113.17915 | 34977 ft | 477 kts | 91° |
| 2026-05-06 12:56 | 36.60408 | -113.09703 | 35000 ft | 477 kts | 91° |
| 2026-05-06 12:56 | 36.59639 | -113.01499 | 34987 ft | 478 kts | 91° |
| 2026-05-06 12:57 | 36.58884 | -112.93261 | 34996 ft | 481 kts | 91° |
| 2026-05-06 12:57 | 36.58128 | -112.84997 | 34997 ft | 482 kts | 91° |
| 2026-05-06 12:58 | 36.57367 | -112.76706 | 35000 ft | 482 kts | 92° |
| 2026-05-06 12:58 | 36.56597 | -112.68418 | 35010 ft | 484 kts | 92° |